Fairfax, Vermont
Current Conditions -  °F | °C
As of 6:54 PM on Friday 19 Dec 2014 (Local Time) from KBTV Reporting Station
Clear Clear  
Wind Chill: 13°   Ceiling: Unl
Heat Index: 22°   Visibility: 10mi
Dew Point: 14°   Wind: 7mph
Humidity: 72%   Direction: 50°NE
Pressure: 30.19"   Gusts: NA
Location:  44.67°N, 73.01°W
Report Text: KBTV 192354Z 05006KT 10SM CLR M06/M10 A3019 RMK AO2 SLP228 T10561100 11039 21056 51023
Loading
Personal Weather Stations






























Interactive Weather Map New forecast layout! Learn more

10-Day Weather Forecast

Advertisements
Track Severe Weather on mobile